createdAt,value
2018-07-08T00:00:05.633Z,51.90
2018-07-08T00:01:05.517Z,52.10
2018-07-08T00:02:08.831Z,52.10
2018-07-08T00:03:06.547Z,52.10
2018-07-08T00:04:09.367Z,52.00
2018-07-08T00:05:06.143Z,51.90
2018-07-08T00:06:05.738Z,52.00
2018-07-08T00:07:11.168Z,52.80
2018-07-08T00:08:08.850Z,52.20
2018-07-08T00:09:06.599Z,52.20
2018-07-08T00:10:06.156Z,52.70
2018-07-08T00:11:06.578Z,52.80
2018-07-08T00:12:06.714Z,52.60
2018-07-08T00:13:05.891Z,52.30
2018-07-08T00:14:05.578Z,52.30
2018-07-08T00:15:06.220Z,52.40
2018-07-08T00:16:09.149Z,53.00
2018-07-08T00:17:06.058Z,53.00
2018-07-08T00:18:06.898Z,52.60
2018-07-08T00:19:15.982Z,52.40
2018-07-08T00:20:06.437Z,52.40
2018-07-08T00:21:05.878Z,52.40
2018-07-08T00:22:05.662Z,52.20
2018-07-08T00:23:08.856Z,52.50
2018-07-08T00:24:06.251Z,52.50
2018-07-08T00:25:14.895Z,52.70
2018-07-08T00:26:06.409Z,52.70
2018-07-08T00:27:08.407Z,52.30
2018-07-08T00:28:05.786Z,52.30
2018-07-08T00:29:09.343Z,52.60
2018-07-08T00:30:05.749Z,52.60
2018-07-08T00:31:11.308Z,53.60
2018-07-08T00:32:05.880Z,53.70
2018-07-08T00:33:06.186Z,53.80
2018-07-08T00:34:08.073Z,54.20
2018-07-08T00:35:13.030Z,54.20
2018-07-08T00:36:05.351Z,54.20
2018-07-08T00:37:06.498Z,54.10
2018-07-08T00:38:08.884Z,54.50
2018-07-08T00:39:11.303Z,54.50
2018-07-08T00:40:09.183Z,54.80
2018-07-08T00:41:10.855Z,54.70
2018-07-08T00:42:10.446Z,54.90
2018-07-08T00:43:08.422Z,55.00
2018-07-08T00:44:06.078Z,54.90
2018-07-08T00:45:05.824Z,55.10
2018-07-08T00:46:05.439Z,55.30
2018-07-08T00:47:08.911Z,55.00
2018-07-08T00:48:09.393Z,54.70
2018-07-08T00:49:06.151Z,54.70
2018-07-08T00:50:06.711Z,55.00
2018-07-08T00:51:11.283Z,55.70
2018-07-08T00:52:05.849Z,55.70
2018-07-08T00:53:06.244Z,55.70
2018-07-08T00:54:06.119Z,55.80
2018-07-08T00:55:05.749Z,55.80
2018-07-08T00:56:06.440Z,55.70
2018-07-08T00:57:05.644Z,55.60
2018-07-08T00:58:06.721Z,55.90
2018-07-08T00:59:06.169Z,55.70
2018-07-08T01:00:05.448Z,55.80
2018-07-08T01:01:06.032Z,56.30
2018-07-08T01:02:05.421Z,56.00
2018-07-08T01:03:06.119Z,55.70
2018-07-08T01:04:06.707Z,55.50
2018-07-08T01:05:11.723Z,56.10
2018-07-08T01:06:06.620Z,56.10
2018-07-08T01:07:06.156Z,56.40
2018-07-08T01:08:05.619Z,56.60
2018-07-08T01:09:07.235Z,56.70
2018-07-08T01:10:05.782Z,56.70
2018-07-08T01:11:06.126Z,57.00
2018-07-08T01:12:05.950Z,56.60
2018-07-08T01:13:09.200Z,56.40
2018-07-08T01:14:05.692Z,56.20
2018-07-08T01:15:06.350Z,56.20
2018-07-08T01:16:05.669Z,56.20
2018-07-08T01:17:05.787Z,56.30
2018-07-08T01:18:06.236Z,56.70
2018-07-08T01:19:06.301Z,56.50
2018-07-08T01:20:10.534Z,57.20
2018-07-08T01:21:10.053Z,57.10
2018-07-08T01:22:05.508Z,57.10
2018-07-08T01:23:06.517Z,57.00
2018-07-08T01:24:05.639Z,56.90
2018-07-08T01:25:09.504Z,58.10
2018-07-08T01:26:09.315Z,58.30
2018-07-08T01:27:10.857Z,58.30
2018-07-08T01:28:05.944Z,58.00
2018-07-08T01:29:09.385Z,58.20
2018-07-08T01:30:10.846Z,58.30
2018-07-08T01:31:11.282Z,58.20
2018-07-08T01:32:11.390Z,58.60
2018-07-08T01:33:05.750Z,58.90
2018-07-08T01:34:08.973Z,59.30
2018-07-08T01:35:13.181Z,59.10
2018-07-08T01:36:05.632Z,59.20
2018-07-08T01:37:10.940Z,59.10
2018-07-08T01:38:05.620Z,58.90
2018-07-08T01:39:06.160Z,58.90
2018-07-08T01:40:05.593Z,59.20
2018-07-08T01:41:06.594Z,59.00
2018-07-08T01:42:05.500Z,59.00
2018-07-08T01:43:05.863Z,58.90
2018-07-08T01:44:06.718Z,58.80
2018-07-08T01:45:08.716Z,58.60
2018-07-08T01:46:08.730Z,58.40
2018-07-08T01:47:06.485Z,58.40
2018-07-08T01:48:05.878Z,59.00
2018-07-08T01:49:05.441Z,58.90
2018-07-08T01:50:06.123Z,59.00
2018-07-08T01:51:08.400Z,59.30
2018-07-08T01:52:05.819Z,59.30
2018-07-08T01:53:05.522Z,59.20
2018-07-08T01:54:08.186Z,59.10
2018-07-08T01:55:05.805Z,59.10
2018-07-08T01:56:06.379Z,59.30
2018-07-08T01:57:06.162Z,59.10
2018-07-08T01:58:05.720Z,59.10
2018-07-08T01:59:06.466Z,59.40
2018-07-08T02:00:11.129Z,59.00
2018-07-08T02:01:06.561Z,59.10
2018-07-08T02:02:06.635Z,59.50
2018-07-08T02:03:08.973Z,59.50
2018-07-08T02:04:05.920Z,59.50
2018-07-08T02:05:06.317Z,59.30
2018-07-08T02:06:06.273Z,58.90
2018-07-08T02:07:06.203Z,58.90
2018-07-08T02:08:11.075Z,59.70
2018-07-08T02:09:11.111Z,59.80
2018-07-08T02:10:11.211Z,59.60
2018-07-08T02:11:06.869Z,59.70
2018-07-08T02:12:06.023Z,60.00
2018-07-08T02:13:05.729Z,59.80
2018-07-08T02:14:11.165Z,60.00
2018-07-08T02:15:06.231Z,60.00
2018-07-08T02:16:09.145Z,60.10
2018-07-08T02:17:05.770Z,60.00
2018-07-08T02:18:05.547Z,59.90
2018-07-08T02:19:11.086Z,59.60
2018-07-08T02:20:09.320Z,59.40
2018-07-08T02:21:10.761Z,59.40
2018-07-08T02:22:09.341Z,60.00
2018-07-08T02:23:06.247Z,60.00
2018-07-08T02:24:08.934Z,59.90
2018-07-08T02:25:06.285Z,59.90
2018-07-08T02:26:10.435Z,59.80
2018-07-08T02:27:06.242Z,60.00
2018-07-08T02:28:06.700Z,60.20
2018-07-08T02:29:11.062Z,59.70
2018-07-08T02:30:10.226Z,60.00
2018-07-08T02:31:06.290Z,59.90
2018-07-08T02:32:06.281Z,59.90
2018-07-08T02:33:06.184Z,59.70
2018-07-08T02:34:06.264Z,59.70
2018-07-08T02:35:05.452Z,60.10
2018-07-08T02:36:08.575Z,60.30
2018-07-08T02:37:06.279Z,60.30
2018-07-08T02:38:05.904Z,60.10
2018-07-08T02:39:06.400Z,60.20
2018-07-08T02:40:06.817Z,60.50
2018-07-08T02:41:06.869Z,61.00
2018-07-08T02:42:06.691Z,60.70
2018-07-08T02:43:09.640Z,60.60
2018-07-08T02:44:06.369Z,60.40
2018-07-08T02:45:08.496Z,61.10
2018-07-08T02:46:08.383Z,61.20
2018-07-08T02:47:05.831Z,61.20
2018-07-08T02:48:05.496Z,61.60
2018-07-08T02:49:06.049Z,61.40
2018-07-08T02:50:06.018Z,60.90
2018-07-08T02:51:05.829Z,60.80
2018-07-08T02:52:06.569Z,60.50
2018-07-08T02:53:06.186Z,60.80
2018-07-08T02:54:06.123Z,61.00
2018-07-08T02:55:13.405Z,61.20
2018-07-08T02:56:06.186Z,61.20
2018-07-08T02:57:07.866Z,60.80
2018-07-08T02:58:07.462Z,60.60
2018-07-08T02:59:11.170Z,60.30
2018-07-08T03:00:05.690Z,60.20
2018-07-08T03:01:06.512Z,60.00
2018-07-08T03:02:05.708Z,59.90
2018-07-08T03:03:05.371Z,60.30
2018-07-08T03:04:09.823Z,60.50
2018-07-08T03:05:06.232Z,60.50
2018-07-08T03:06:06.716Z,60.60
2018-07-08T03:07:09.216Z,60.20
2018-07-08T03:08:08.295Z,60.60
2018-07-08T03:09:06.031Z,60.60
2018-07-08T03:10:08.861Z,60.80
2018-07-08T03:11:06.268Z,60.70
2018-07-08T03:12:06.250Z,60.80
2018-07-08T03:13:05.700Z,60.90
2018-07-08T03:14:05.890Z,61.10
2018-07-08T03:15:07.060Z,60.90
2018-07-08T03:16:05.711Z,61.00
2018-07-08T03:17:06.196Z,61.10
2018-07-08T03:18:05.566Z,61.00
2018-07-08T03:19:06.017Z,61.30
2018-07-08T03:20:06.413Z,61.60
2018-07-08T03:21:10.912Z,61.50
2018-07-08T03:22:11.143Z,61.30
2018-07-08T03:23:10.463Z,61.50
2018-07-08T03:24:10.559Z,61.50
2018-07-08T03:25:10.733Z,61.40
2018-07-08T03:26:06.003Z,61.90
2018-07-08T03:27:05.764Z,62.20
2018-07-08T03:28:11.037Z,62.10
2018-07-08T03:29:06.426Z,62.10
2018-07-08T03:30:05.565Z,61.80
2018-07-08T03:31:06.557Z,62.00
2018-07-08T03:32:10.665Z,61.80
2018-07-08T03:33:06.311Z,61.60
2018-07-08T03:34:05.941Z,61.60
2018-07-08T03:35:05.644Z,61.80
2018-07-08T03:36:06.160Z,62.00
2018-07-08T03:37:05.769Z,61.90
2018-07-08T03:38:07.911Z,61.50
2018-07-08T03:39:06.735Z,61.60
2018-07-08T03:40:08.676Z,61.30
2018-07-08T03:41:12.366Z,61.10
2018-07-08T03:42:05.710Z,61.10
2018-07-08T03:43:06.001Z,61.10
2018-07-08T03:44:05.983Z,60.80
2018-07-08T03:45:06.097Z,60.60
2018-07-08T03:46:06.092Z,60.50
2018-07-08T03:47:06.220Z,61.30
2018-07-08T03:48:08.863Z,61.30
2018-07-08T03:49:11.417Z,61.20
2018-07-08T03:50:05.648Z,61.20
2018-07-08T03:51:06.189Z,61.40
2018-07-08T03:52:08.611Z,61.60
2018-07-08T03:53:06.021Z,61.50
2018-07-08T03:54:06.646Z,61.70
2018-07-08T03:55:09.209Z,61.30
2018-07-08T03:56:06.902Z,61.30
2018-07-08T03:57:10.705Z,61.10
2018-07-08T03:58:06.822Z,61.10
2018-07-08T03:59:06.221Z,60.80
2018-07-08T04:00:11.270Z,60.80
2018-07-08T04:01:05.887Z,60.80
2018-07-08T04:02:11.256Z,61.20
2018-07-08T04:03:05.969Z,61.30
2018-07-08T04:04:06.199Z,61.10
2018-07-08T04:05:06.165Z,61.20
2018-07-08T04:06:05.861Z,61.50
2018-07-08T04:07:08.892Z,61.40
2018-07-08T04:08:09.140Z,61.20
2018-07-08T04:09:05.536Z,61.30
2018-07-08T04:10:06.381Z,61.10
2018-07-08T04:11:06.155Z,60.60
2018-07-08T04:12:08.629Z,59.60
2018-07-08T04:13:06.220Z,59.50
2018-07-08T04:14:05.884Z,58.80
2018-07-08T04:15:06.172Z,58.50
2018-07-08T04:16:08.384Z,57.60
2018-07-08T04:17:06.119Z,57.50
2018-07-08T04:18:06.002Z,56.90
2018-07-08T04:19:09.278Z,55.80
2018-07-08T04:20:05.771Z,55.80
2018-07-08T04:21:09.186Z,54.60
2018-07-08T04:22:05.849Z,54.60
2018-07-08T04:23:05.641Z,54.20
2018-07-08T04:24:09.101Z,52.90
2018-07-08T04:25:06.240Z,52.90
2018-07-08T04:26:06.143Z,52.20
2018-07-08T04:27:08.667Z,51.10
2018-07-08T04:28:09.228Z,49.90
2018-07-08T04:29:10.652Z,49.80
2018-07-08T04:30:06.029Z,49.50
2018-07-08T04:31:06.199Z,49.10
2018-07-08T04:32:06.099Z,48.80
2018-07-08T04:33:05.939Z,48.40
2018-07-08T04:34:05.372Z,47.70
2018-07-08T04:35:06.309Z,47.40
2018-07-08T04:36:05.398Z,46.80
2018-07-08T04:37:05.968Z,46.30
2018-07-08T04:38:08.037Z,45.50
2018-07-08T04:39:05.557Z,45.50
2018-07-08T04:40:06.164Z,45.10
2018-07-08T04:41:11.090Z,44.60
2018-07-08T04:42:06.132Z,44.60
2018-07-08T04:43:10.857Z,44.10
2018-07-08T04:44:06.149Z,44.10
2018-07-08T04:45:08.696Z,43.10
2018-07-08T04:46:11.123Z,43.10
2018-07-08T04:47:06.021Z,42.60
2018-07-08T04:48:05.863Z,42.50
2018-07-08T04:49:06.366Z,42.50
2018-07-08T04:50:05.798Z,42.00
2018-07-08T04:51:10.479Z,41.30
2018-07-08T04:52:05.422Z,41.30
2018-07-08T04:53:09.043Z,41.00
2018-07-08T04:54:09.131Z,40.70
2018-07-08T04:55:05.594Z,40.70
2018-07-08T04:56:06.563Z,40.40
2018-07-08T04:57:05.801Z,40.10
2018-07-08T04:58:05.847Z,40.10
2018-07-08T04:59:06.108Z,40.00
2018-07-08T05:00:05.447Z,39.70
2018-07-08T05:01:06.304Z,39.50
2018-07-08T05:02:06.398Z,39.40
2018-07-08T05:03:06.264Z,39.20
2018-07-08T05:04:05.679Z,39.10
2018-07-08T05:05:05.637Z,38.80
2018-07-08T05:06:08.984Z,38.30
2018-07-08T05:07:06.411Z,38.20
2018-07-08T05:08:05.864Z,38.10
2018-07-08T05:09:05.944Z,38.20
2018-07-08T05:10:10.659Z,37.90
2018-07-08T05:11:06.059Z,37.90
2018-07-08T05:12:06.332Z,37.80
2018-07-08T05:13:06.244Z,37.50
2018-07-08T05:14:08.911Z,37.80
2018-07-08T05:15:06.398Z,37.70
2018-07-08T05:16:06.596Z,37.20
2018-07-08T05:17:11.186Z,37.10
2018-07-08T05:18:06.104Z,37.20
2018-07-08T05:19:05.850Z,36.80
2018-07-08T05:20:06.040Z,36.80
2018-07-08T05:21:05.804Z,36.80
2018-07-08T05:22:09.296Z,37.00
2018-07-08T05:23:05.803Z,36.90
2018-07-08T05:24:05.628Z,36.70
2018-07-08T05:25:06.358Z,36.60
2018-07-08T05:26:10.791Z,36.20
2018-07-08T05:27:06.687Z,36.20
2018-07-08T05:28:05.744Z,35.60
2018-07-08T05:29:09.177Z,35.20
2018-07-08T05:30:05.780Z,35.20
2018-07-08T05:31:06.229Z,35.00
2018-07-08T05:32:10.746Z,35.30
2018-07-08T05:33:06.146Z,35.30
2018-07-08T05:34:06.453Z,35.30
2018-07-08T05:35:05.904Z,35.40
2018-07-08T05:36:08.890Z,35.60
2018-07-08T05:37:06.229Z,35.50
2018-07-08T05:38:11.300Z,35.70
2018-07-08T05:39:06.202Z,35.70
2018-07-08T05:40:10.616Z,35.70
2018-07-08T05:41:06.099Z,35.80
2018-07-08T05:42:05.790Z,35.80
2018-07-08T05:43:08.566Z,35.70
2018-07-08T05:44:05.864Z,35.70
2018-07-08T05:45:06.086Z,35.30
2018-07-08T05:46:12.006Z,35.30
2018-07-08T05:47:06.309Z,35.20
2018-07-08T05:48:10.518Z,34.30
2018-07-08T05:49:08.645Z,34.20
2018-07-08T05:50:12.063Z,34.20
2018-07-08T05:51:05.595Z,34.10
2018-07-08T05:52:06.448Z,33.80
2018-07-08T05:53:08.847Z,33.20
2018-07-08T05:54:09.642Z,33.20
2018-07-08T05:55:06.417Z,33.30
2018-07-08T05:56:10.842Z,33.70
2018-07-08T05:57:11.179Z,33.60
2018-07-08T05:58:06.419Z,33.60
2018-07-08T05:59:06.134Z,33.30
2018-07-08T06:00:05.874Z,32.60
2018-07-08T06:01:05.479Z,33.00
2018-07-08T06:02:06.017Z,33.10
2018-07-08T06:03:06.046Z,33.20
2018-07-08T06:04:10.675Z,32.30
2018-07-08T06:05:06.424Z,32.30
2018-07-08T06:06:05.729Z,32.10
2018-07-08T06:07:06.013Z,31.90
2018-07-08T06:08:06.328Z,31.70
2018-07-08T06:09:10.649Z,31.20
2018-07-08T06:10:08.350Z,31.10
2018-07-08T06:11:10.916Z,31.10
2018-07-08T06:12:06.312Z,31.00
2018-07-08T06:13:08.686Z,31.60
2018-07-08T06:14:06.221Z,31.60
2018-07-08T06:15:10.829Z,31.80
2018-07-08T06:16:09.797Z,31.40
2018-07-08T06:17:11.471Z,31.40
2018-07-08T06:18:11.151Z,31.50
2018-07-08T06:19:05.734Z,31.40
2018-07-08T06:20:06.776Z,31.00
2018-07-08T06:21:10.776Z,30.80
2018-07-08T06:22:06.109Z,31.20
2018-07-08T06:23:10.966Z,31.80
2018-07-08T06:24:06.432Z,31.80
2018-07-08T06:25:11.161Z,30.70
2018-07-08T06:26:06.526Z,30.80
2018-07-08T06:27:11.068Z,30.90
2018-07-08T06:28:06.397Z,30.90
2018-07-08T06:29:09.225Z,30.70
2018-07-08T06:30:05.984Z,30.70
2018-07-08T06:31:11.090Z,30.70
2018-07-08T06:32:10.657Z,30.70
2018-07-08T06:33:07.041Z,30.60
2018-07-08T06:34:06.343Z,30.70
2018-07-08T06:35:06.159Z,30.60
2018-07-08T06:36:06.256Z,30.30
2018-07-08T06:37:10.848Z,30.20
2018-07-08T06:38:06.499Z,30.20
2018-07-08T06:39:05.899Z,30.20
2018-07-08T06:40:05.862Z,29.80
2018-07-08T06:41:09.581Z,29.60
2018-07-08T06:42:11.072Z,29.40
2018-07-08T06:43:06.196Z,29.40
2018-07-08T06:44:06.064Z,29.50
2018-07-08T06:45:08.507Z,29.90
2018-07-08T06:46:05.850Z,29.90
2018-07-08T06:47:06.062Z,30.00
2018-07-08T06:48:05.919Z,30.00
2018-07-08T06:49:08.045Z,29.70
2018-07-08T06:50:05.717Z,29.80
2018-07-08T06:51:06.298Z,29.60
2018-07-08T06:52:06.354Z,29.50
2018-07-08T06:53:08.425Z,29.80
2018-07-08T06:54:06.203Z,29.80
2018-07-08T06:55:08.334Z,29.90
2018-07-08T06:56:05.872Z,29.90
2018-07-08T06:57:06.420Z,30.10
2018-07-08T06:58:06.824Z,30.30
2018-07-08T06:59:06.076Z,29.50
2018-07-08T07:00:08.298Z,29.90
2018-07-08T07:01:05.927Z,29.80
2018-07-08T07:02:09.256Z,29.70
2018-07-08T07:03:05.965Z,29.70
2018-07-08T07:04:05.420Z,29.70
2018-07-08T07:05:06.370Z,29.40
2018-07-08T07:06:08.504Z,29.50
2018-07-08T07:07:09.238Z,28.60
2018-07-08T07:08:05.654Z,28.60
2018-07-08T07:09:06.352Z,29.20
2018-07-08T07:10:06.175Z,29.20
2018-07-08T07:11:06.359Z,28.40
2018-07-08T07:12:06.482Z,28.60
2018-07-08T07:13:10.213Z,29.20
2018-07-08T07:14:09.237Z,29.00
2018-07-08T07:15:10.805Z,29.00
2018-07-08T07:16:05.688Z,29.00
2018-07-08T07:17:14.349Z,29.10
2018-07-08T07:18:08.607Z,29.50
2018-07-08T07:19:11.053Z,29.50
2018-07-08T07:20:10.665Z,29.50
2018-07-08T07:21:11.132Z,29.20
2018-07-08T07:22:05.548Z,29.30
2018-07-08T07:23:06.148Z,29.60
2018-07-08T07:24:05.958Z,30.10
2018-07-08T07:25:05.947Z,30.10
2018-07-08T07:26:08.237Z,30.50
2018-07-08T07:27:08.119Z,30.70
2018-07-08T07:28:05.539Z,30.70
2018-07-08T07:29:05.928Z,31.00
2018-07-08T07:30:05.439Z,31.00
2018-07-08T07:31:08.562Z,30.90
2018-07-08T07:32:06.269Z,30.90
2018-07-08T07:33:06.273Z,31.10
2018-07-08T07:34:05.841Z,30.80
2018-07-08T07:35:05.896Z,30.90
2018-07-08T07:36:10.757Z,30.90
2018-07-08T07:37:06.207Z,30.90
2018-07-08T07:38:06.021Z,30.80
2018-07-08T07:39:06.500Z,30.60
2018-07-08T07:40:06.493Z,30.30
2018-07-08T07:41:06.529Z,30.30
2018-07-08T07:42:06.445Z,30.30
2018-07-08T07:43:05.806Z,30.20
2018-07-08T07:44:08.986Z,30.80
2018-07-08T07:45:11.443Z,30.60
2018-07-08T07:46:08.796Z,30.40
2018-07-08T07:47:06.151Z,30.40
2018-07-08T07:48:08.722Z,30.70
2018-07-08T07:49:06.486Z,30.70
2018-07-08T07:50:05.865Z,30.90
2018-07-08T07:51:05.720Z,31.00
2018-07-08T07:52:11.307Z,31.10
2018-07-08T07:53:06.065Z,31.10
2018-07-08T07:54:06.692Z,30.90
2018-07-08T07:55:07.927Z,31.20
2018-07-08T07:56:09.225Z,31.00
2018-07-08T07:57:05.655Z,31.00
2018-07-08T07:58:06.558Z,31.00
2018-07-08T07:59:06.617Z,30.40
2018-07-08T08:00:15.678Z,29.90
2018-07-08T08:01:08.531Z,30.10
2018-07-08T08:02:06.103Z,30.10
2018-07-08T08:03:06.317Z,30.30
2018-07-08T08:04:06.207Z,30.40
2018-07-08T08:05:06.281Z,30.10
2018-07-08T08:06:05.994Z,30.20
2018-07-08T08:07:06.432Z,30.70
2018-07-08T08:08:06.208Z,31.10
2018-07-08T08:09:05.773Z,31.20
2018-07-08T08:10:06.483Z,31.70
2018-07-08T08:11:10.823Z,31.80
2018-07-08T08:12:10.848Z,31.70
2018-07-08T08:13:06.150Z,31.80
2018-07-08T08:14:06.155Z,32.00
2018-07-08T08:15:08.521Z,31.80
2018-07-08T08:16:13.809Z,31.00
2018-07-08T08:17:06.983Z,31.00
2018-07-08T08:18:09.372Z,31.10
2018-07-08T08:19:05.735Z,31.10
2018-07-08T08:20:09.280Z,31.50
2018-07-08T08:21:08.452Z,31.20
2018-07-08T08:22:10.907Z,31.20
2018-07-08T08:23:09.430Z,31.60
2018-07-08T08:24:06.202Z,31.60
2018-07-08T08:25:11.535Z,31.30
2018-07-08T08:26:06.159Z,30.80
2018-07-08T08:27:05.735Z,31.20
2018-07-08T08:28:09.392Z,31.30
2018-07-08T08:29:05.460Z,31.30
2018-07-08T08:30:05.923Z,30.70
2018-07-08T08:31:06.412Z,30.50
2018-07-08T08:32:09.159Z,30.80
2018-07-08T08:33:08.062Z,30.00
2018-07-08T08:34:05.679Z,30.00
2018-07-08T08:35:05.980Z,30.10
2018-07-08T08:36:05.730Z,30.20
2018-07-08T08:37:05.731Z,30.50
2018-07-08T08:38:05.838Z,30.20
2018-07-08T08:39:06.712Z,31.10
2018-07-08T08:40:06.382Z,30.60
2018-07-08T08:41:10.864Z,30.50
2018-07-08T08:42:09.136Z,30.50
2018-07-08T08:43:05.497Z,30.50
2018-07-08T08:44:06.135Z,30.20
2018-07-08T08:45:10.690Z,30.70
2018-07-08T08:46:09.465Z,30.70
2018-07-08T08:47:10.030Z,30.10
2018-07-08T08:48:05.965Z,30.00
2018-07-08T08:49:06.146Z,31.00
2018-07-08T08:50:05.813Z,30.90
2018-07-08T08:51:06.234Z,30.70
2018-07-08T08:52:05.942Z,30.70
2018-07-08T08:53:06.295Z,30.70
2018-07-08T08:54:06.260Z,30.50
2018-07-08T08:55:06.683Z,29.70
2018-07-08T08:56:06.309Z,29.70
2018-07-08T08:57:09.093Z,28.40
2018-07-08T08:58:05.519Z,28.40
2018-07-08T08:59:08.721Z,29.40
2018-07-08T09:00:05.739Z,29.40
2018-07-08T09:01:11.162Z,29.70
2018-07-08T09:02:05.463Z,29.50
2018-07-08T09:03:08.351Z,30.10
2018-07-08T09:04:05.809Z,30.10
2018-07-08T09:05:07.002Z,30.00
2018-07-08T09:06:06.058Z,30.30
2018-07-08T09:07:06.060Z,30.40
2018-07-08T09:08:10.272Z,29.80
2018-07-08T09:09:05.857Z,29.80
2018-07-08T09:10:08.048Z,29.60
2018-07-08T09:11:10.448Z,29.70
2018-07-08T09:12:05.664Z,29.70
2018-07-08T09:13:08.935Z,29.30
2018-07-08T09:14:08.819Z,28.60
2018-07-08T09:15:06.652Z,28.50
2018-07-08T09:16:06.100Z,28.40
2018-07-08T09:17:05.577Z,28.40
2018-07-08T09:18:06.256Z,29.20
2018-07-08T09:19:05.846Z,28.90
2018-07-08T09:20:08.924Z,29.20
2018-07-08T09:21:06.327Z,29.20
2018-07-08T09:22:06.262Z,29.00
2018-07-08T09:23:06.059Z,28.60
2018-07-08T09:24:06.089Z,28.80
2018-07-08T09:25:05.761Z,29.30
2018-07-08T09:26:10.501Z,29.10
2018-07-08T09:27:10.049Z,29.50
2018-07-08T09:28:05.522Z,29.60
2018-07-08T09:29:06.184Z,29.90
2018-07-08T09:30:05.782Z,29.70
2018-07-08T09:31:08.543Z,29.80
2018-07-08T09:32:19.427Z,29.80
2018-07-08T09:33:10.980Z,29.70
2018-07-08T09:34:12.350Z,29.80
2018-07-08T09:35:05.894Z,31.40
2018-07-08T09:36:05.706Z,30.90
2018-07-08T09:37:09.071Z,30.10
2018-07-08T09:38:10.522Z,29.80
2018-07-08T09:39:06.200Z,29.90
2018-07-08T09:40:09.054Z,29.70
2018-07-08T09:41:05.471Z,29.80
2018-07-08T09:42:08.969Z,29.30
2018-07-08T09:43:06.532Z,29.30
2018-07-08T09:44:06.087Z,29.70
2018-07-08T09:45:06.113Z,30.20
2018-07-08T09:46:10.497Z,30.40
2018-07-08T09:47:09.261Z,29.90
2018-07-08T09:48:05.981Z,29.90
2018-07-08T09:49:08.361Z,28.80
2018-07-08T09:50:05.963Z,28.90
2018-07-08T09:51:08.989Z,30.70
2018-07-08T09:52:05.932Z,30.60
2018-07-08T09:53:11.330Z,30.40
2018-07-08T09:54:06.084Z,30.30
2018-07-08T09:55:09.002Z,29.40
2018-07-08T09:56:05.379Z,29.40
2018-07-08T09:57:06.282Z,28.90
2018-07-08T09:58:05.913Z,29.40
2018-07-08T09:59:08.546Z,29.30
2018-07-08T10:00:09.797Z,29.10
2018-07-08T10:01:08.803Z,29.30
2018-07-08T10:02:06.896Z,29.40
2018-07-08T10:03:05.978Z,28.90
2018-07-08T10:04:05.703Z,28.70
2018-07-08T10:05:06.301Z,28.90
2018-07-08T10:06:05.510Z,28.30
2018-07-08T10:07:08.827Z,28.70
2018-07-08T10:08:08.933Z,28.70
2018-07-08T10:09:11.460Z,28.80
2018-07-08T10:10:08.332Z,29.00
2018-07-08T10:11:11.355Z,29.00
2018-07-08T10:12:10.379Z,29.20
2018-07-08T10:13:05.574Z,29.30
2018-07-08T10:14:06.557Z,29.00
2018-07-08T10:15:10.642Z,29.30
2018-07-08T10:16:11.103Z,29.30
2018-07-08T10:17:06.454Z,29.30
2018-07-08T10:18:06.451Z,29.10
2018-07-08T10:19:08.089Z,29.00
2018-07-08T10:20:09.159Z,28.20
2018-07-08T10:21:09.792Z,27.90
2018-07-08T10:22:06.245Z,28.00
2018-07-08T10:23:05.987Z,29.00
2018-07-08T10:24:05.792Z,28.40
2018-07-08T10:25:06.331Z,28.60
2018-07-08T10:26:11.021Z,28.30
2018-07-08T10:27:06.245Z,28.30
2018-07-08T10:28:05.787Z,28.90
2018-07-08T10:29:11.161Z,29.20
2018-07-08T10:30:06.008Z,29.20
2018-07-08T10:31:10.520Z,29.30
2018-07-08T10:32:06.206Z,29.20
2018-07-08T10:33:05.972Z,28.80
2018-07-08T10:34:09.357Z,29.30
2018-07-08T10:35:10.833Z,29.40
2018-07-08T10:36:06.487Z,29.40
2018-07-08T10:37:09.078Z,29.20
2018-07-08T10:38:05.699Z,29.20
2018-07-08T10:39:05.539Z,29.20
2018-07-08T10:40:05.727Z,28.10
2018-07-08T10:41:05.834Z,28.10
2018-07-08T10:42:06.168Z,27.90
2018-07-08T10:43:05.516Z,27.40
2018-07-08T10:44:05.808Z,27.90
2018-07-08T10:45:10.372Z,28.40
2018-07-08T10:46:06.995Z,28.80
2018-07-08T10:47:10.649Z,28.20
2018-07-08T10:48:06.086Z,28.70
2018-07-08T10:49:05.791Z,29.10
2018-07-08T10:50:06.502Z,29.40
2018-07-08T10:51:06.206Z,29.10
2018-07-08T10:52:06.385Z,29.20
2018-07-08T10:53:06.337Z,29.10
2018-07-08T10:54:05.470Z,29.30
2018-07-08T10:55:05.834Z,30.00
2018-07-08T10:56:10.878Z,29.70
2018-07-08T10:57:11.344Z,29.70
2018-07-08T10:58:10.797Z,29.70
2018-07-08T10:59:10.778Z,29.80
2018-07-08T11:00:06.256Z,29.80
2018-07-08T11:01:08.794Z,30.00
2018-07-08T11:02:09.812Z,30.30
2018-07-08T11:03:09.192Z,30.10
2018-07-08T11:04:05.622Z,30.10
2018-07-08T11:05:06.288Z,30.00
2018-07-08T11:06:10.651Z,29.60
2018-07-08T11:07:06.597Z,29.30
2018-07-08T11:08:06.212Z,29.30
2018-07-08T11:09:10.625Z,28.70
2018-07-08T11:10:05.955Z,28.70
2018-07-08T11:11:05.741Z,28.90
2018-07-08T11:12:05.975Z,29.30
2018-07-08T11:13:08.948Z,29.50
2018-07-08T11:14:06.836Z,29.50
2018-07-08T11:15:06.456Z,29.20
2018-07-08T11:16:10.727Z,29.40
2018-07-08T11:17:10.876Z,30.00
2018-07-08T11:18:06.153Z,30.00
2018-07-08T11:19:08.403Z,29.80
2018-07-08T11:20:06.321Z,29.80
2018-07-08T11:21:15.945Z,30.50
2018-07-08T11:22:05.793Z,30.40
2018-07-08T11:23:06.836Z,30.40
2018-07-08T11:24:09.165Z,30.10
2018-07-08T11:25:10.824Z,30.00
2018-07-08T11:26:08.710Z,30.10
2018-07-08T11:27:06.349Z,30.10
2018-07-08T11:28:05.980Z,30.10
2018-07-08T11:29:05.357Z,30.30
2018-07-08T11:30:05.931Z,30.50
2018-07-08T11:31:05.608Z,30.00
2018-07-08T11:32:06.203Z,29.80
2018-07-08T11:33:06.503Z,29.80
2018-07-08T11:34:10.711Z,30.60
2018-07-08T11:35:05.852Z,30.80
2018-07-08T11:36:05.641Z,31.40
2018-07-08T11:37:06.130Z,31.40
2018-07-08T11:38:06.280Z,31.30
2018-07-08T11:39:06.123Z,31.10
2018-07-08T11:40:05.419Z,32.00
2018-07-08T11:41:06.237Z,31.20
2018-07-08T11:42:06.382Z,31.50
2018-07-08T11:43:05.973Z,32.00
2018-07-08T11:44:06.818Z,32.30
2018-07-08T11:45:08.505Z,31.20
2018-07-08T11:46:11.080Z,31.20
2018-07-08T11:47:05.917Z,30.90
2018-07-08T11:48:06.105Z,31.20
2018-07-08T11:49:08.371Z,31.10
2018-07-08T11:50:11.279Z,31.10
2018-07-08T11:51:05.671Z,31.10
2018-07-08T11:52:06.475Z,31.20
2018-07-08T11:53:11.390Z,31.10
2018-07-08T11:54:13.387Z,31.60
2018-07-08T11:55:09.033Z,31.90
2018-07-08T11:56:08.270Z,32.00
2018-07-08T11:57:06.038Z,32.00
2018-07-08T11:58:05.627Z,32.50
2018-07-08T11:59:11.112Z,32.30
2018-07-08T12:00:05.751Z,32.30
2018-07-08T12:01:10.653Z,32.10
2018-07-08T12:02:05.848Z,32.00
2018-07-08T12:03:05.514Z,32.10
2018-07-08T12:04:09.151Z,32.40
2018-07-08T12:05:06.133Z,32.40
2018-07-08T12:06:05.339Z,32.60
2018-07-08T12:07:06.519Z,32.10
2018-07-08T12:08:10.977Z,33.50
2018-07-08T12:09:13.652Z,34.00
2018-07-08T12:10:09.200Z,33.50
2018-07-08T12:11:10.733Z,33.50
2018-07-08T12:12:05.961Z,33.50
2018-07-08T12:13:06.075Z,33.30
2018-07-08T12:14:06.224Z,33.70
2018-07-08T12:15:08.573Z,34.50
2018-07-08T12:16:05.432Z,34.50
2018-07-08T12:17:09.076Z,33.40
2018-07-08T12:18:05.481Z,33.40
2018-07-08T12:19:06.637Z,33.50
2018-07-08T12:20:06.069Z,32.20
2018-07-08T12:21:05.961Z,32.50
2018-07-08T12:22:06.287Z,32.60
2018-07-08T12:23:05.830Z,32.60
2018-07-08T12:24:06.022Z,32.20
2018-07-08T12:25:06.290Z,31.60
2018-07-08T12:26:08.907Z,31.40
2018-07-08T12:27:11.494Z,31.40
2018-07-08T12:28:06.324Z,31.60
2018-07-08T12:29:06.153Z,31.50
2018-07-08T12:30:06.656Z,31.90
2018-07-08T12:31:05.753Z,32.30
2018-07-08T12:32:06.226Z,32.20
2018-07-08T12:33:05.948Z,32.70
2018-07-08T12:34:10.538Z,32.20
2018-07-08T12:35:06.193Z,32.20
2018-07-08T12:36:08.217Z,32.20
2018-07-08T12:37:05.677Z,32.10
2018-07-08T12:38:06.174Z,31.90
2018-07-08T12:39:10.581Z,32.20
2018-07-08T12:40:05.968Z,32.20
2018-07-08T12:41:05.744Z,32.80
2018-07-08T12:42:11.072Z,32.70
2018-07-08T12:43:06.513Z,32.60
2018-07-08T12:44:06.130Z,32.30
2018-07-08T12:45:05.868Z,31.40
2018-07-08T12:46:06.090Z,31.70
2018-07-08T12:47:06.284Z,31.60
2018-07-08T12:48:05.647Z,31.60
2018-07-08T12:49:05.954Z,32.40
2018-07-08T12:50:05.620Z,32.30
2018-07-08T12:51:06.415Z,32.70
2018-07-08T12:52:06.300Z,32.50